ADDS METAR Data INFO
IDs: Format: Raw Decoded Include TAF

Data at: 1834 UTC 16 Dec 2017

KCAO 161755Z AUTO 18014KT 10SM CLR 13/M12 A2970 RMK AO2 SLP037 T01281117 10139 21006 58007 $
KCAO 161655Z AUTO 20008KT 10SM CLR 12/M14 A2971 RMK AO2 SLP040 T01221139
KCAO 161555Z AUTO 22004KT 10SM CLR 08/M13 A2972 RMK AO2 SLP050 T00831133
KCAO 161455Z AUTO 25008KT 10SM CLR 02/M14 A2972 RMK AO2 SLP065 T00171144 56009
KCAO 161355Z AUTO 25009KT 10SM CLR 01/M14 A2973 RMK AO2 SLP069 T00061144
KCAO 161255Z AUTO 27011KT 10SM CLR 03/M14 A2974 RMK AO2 SLP063 T00281139
KCAO 161155Z AUTO 26009KT 10SM CLR 01/M14 A2975 RMK AO2 SLP072 T00061139 10022 20000 56025
KCAO 161055Z AUTO 26011KT 10SM CLR 01/M14 A2978 RMK AO2 SLP071 T00111139
KCAO 160955Z AUTO 26011KT 10SM CLR 01/M13 A2982 RMK AO2 SLP079 T00111128
KCAO 160855Z AUTO 25012KT 10SM CLR 02/M12 A2984 RMK AO2 SLP085 T00171122 56022
KCAO 160755Z AUTO 26011KT 10SM CLR 01/M11 A2986 RMK AO2 SLP095 T00111111
KCAO 160655Z AUTO 24011KT 10SM CLR 02/M11 A2989 RMK AO2 SLP106 T00171106 401331072
KCAO 160555Z AUTO 25014KT 10SM CLR 02/M11 A2992 RMK AO2 SLP118 T00171106 10061 20011 56014
KCAO 160455Z AUTO 25014KT 10SM CLR 02/M10 A2992 RMK AO2 SLP127 T00221100 $
KCAO 160355Z AUTO 25011KT 10SM CLR 03/M11 A2994 RMK AO2 SLP144 T00281106 $
KCAO 160255Z AUTO 26010KT 10SM CLR 03/M11 A2996 RMK AO2 SLP162 T00281106 58009 $
KCAO 160155Z AUTO 25009KT 10SM CLR 03/M11 A2998 RMK AO2 SLP166 T00331111 $
KCAO 160055Z AUTO 23009KT 10SM CLR 04/M11 A2999 RMK AO2 SLP168 T00441111 $
KCAO 152355Z AUTO 21011KT 10SM CLR 06/M11 A3000 RMK AO2 SLP166 T00611111 10133 20061 58012 $
KCAO 152255Z AUTO 21012KT 10SM CLR 10/M12 A3001 RMK AO2 SLP163 T01001117 $
KCAO 152155Z AUTO 21012KT 10SM CLR 13/M11 A3002 RMK AO2 SLP161 T01281106 $
KCAO 152055Z AUTO 22013KT 10SM CLR 13/M13 A3004 RMK AO2 SLP168 T01331128 56026 $
KCAO 151955Z AUTO 23011KT 10SM CLR 13/M16 A3005 RMK AO2 SLP173 T01281156
KCAO 151855Z AUTO 21012KT 10SM CLR 11/M16 A3009 RMK AO2 SLP191 T01111156
KCAO 151755Z AUTO 23008KT 10SM CLR 10/M12 A3013 RMK AO2 SLP204 T01001117 10100 21056 58008
KCAO 151655Z AUTO 24009KT 10SM CLR 06/M03 A3015 RMK AO2 SLP222 T00611033
KCAO 151555Z AUTO 26011KT 10SM CLR 00/M05 A3015 RMK AO2 SLP234 T00001050
KCAO 151455Z AUTO 25012KT 10SM CLR M04/M08 A3015 RMK AO2 SLP238 T10391078 58012
KCAO 151355Z AUTO 25012KT 10SM CLR M04/M07 A3017 RMK AO2 SLP244 T10441072
KCAO 151255Z AUTO 26014KT 10SM CLR M04/M07 A3018 RMK AO2 SLP240 T10441067
KCAO 151155Z AUTO 25014KT 10SM CLR M04/M07 A3019 RMK AO2 SLP245 T10441067 11039 21072 58016
KCAO 151055Z AUTO 26012KT 10SM CLR M04/M07 A3022 RMK AO2 SLP252 T10441067
KCAO 150955Z AUTO 26013KT 10SM CLR M04/M06 A3024 RMK AO2 SLP260 T10391061
KCAO 150855Z AUTO 25009KT 10SM CLR M06/M08 A3025 RMK AO2 SLP262 T10611083 58009
KCAO 150755Z AUTO 25008KT 10SM CLR M06/M07 A3026 RMK AO2 SLP272 T10561072
KCAO 150655Z AUTO 28009KT 10SM CLR M05/M07 A3027 RMK AO2 SLP269 T10501067 400441067